createdAt,value
2019-04-11T00:00:07.915Z,59.399414
2019-04-11T00:00:32.170Z,59.503174
2019-04-11T00:00:56.452Z,59.191895
2019-04-11T00:01:32.399Z,59.088135
2019-04-11T00:01:49.993Z,59.399414
2019-04-11T00:02:13.254Z,59.191895
2019-04-11T00:02:37.506Z,59.191895
2019-04-11T00:03:01.808Z,59.088135
2019-04-11T00:03:26.058Z,59.399414
2019-04-11T00:03:50.331Z,59.503174
2019-04-11T00:04:14.622Z,59.80835
2019-04-11T00:04:38.925Z,59.710693
2019-04-11T00:05:03.212Z,59.606934
2019-04-11T00:05:27.525Z,59.710693
2019-04-11T00:05:51.796Z,59.912109
2019-04-11T00:06:16.102Z,59.912109
2019-04-11T00:06:40.369Z,59.912109
2019-04-11T00:07:04.689Z,60.015869
2019-04-11T00:07:28.984Z,59.710693
2019-04-11T00:07:53.244Z,59.710693
2019-04-11T00:08:18.569Z,59.912109
2019-04-11T00:08:42.816Z,60.015869
2019-04-11T00:09:07.076Z,59.503174
2019-04-11T00:09:31.378Z,59.503174
2019-04-11T00:09:55.686Z,59.710693
2019-04-11T00:10:21.759Z,59.503174
2019-04-11T00:10:45.989Z,59.80835
2019-04-11T00:11:10.332Z,59.606934
2019-04-11T00:11:34.599Z,59.503174
2019-04-11T00:11:58.860Z,59.503174
2019-04-11T00:12:23.153Z,59.606934
2019-04-11T00:12:47.437Z,59.503174
2019-04-11T00:13:18.784Z,59.80835
2019-04-11T00:13:39.992Z,60.327148
2019-04-11T00:14:04.269Z,60.327148
2019-04-11T00:14:28.549Z,60.430908
2019-04-11T00:14:52.784Z,60.327148
2019-04-11T00:15:17.112Z,60.534668
2019-04-11T00:15:41.399Z,60.742188
2019-04-11T00:16:05.680Z,60.638428
2019-04-11T00:16:29.939Z,60.430908
2019-04-11T00:16:54.253Z,59.912109
2019-04-11T00:17:18.502Z,59.912109
2019-04-11T00:17:42.823Z,60.119629
2019-04-11T00:18:07.130Z,59.912109
2019-04-11T00:18:31.383Z,59.912109
2019-04-11T00:18:55.699Z,59.912109
2019-04-11T00:19:20.027Z,59.912109
2019-04-11T00:19:44.286Z,60.119629
2019-04-11T00:20:08.612Z,60.327148
2019-04-11T00:20:32.823Z,60.534668
2019-04-11T00:20:57.111Z,60.430908
2019-04-11T00:21:21.402Z,60.534668
2019-04-11T00:21:45.704Z,60.742188
2019-04-11T00:22:10.018Z,60.742188
2019-04-11T00:22:34.302Z,60.119629
2019-04-11T00:22:58.572Z,60.327148
2019-04-11T00:23:22.801Z,60.430908
2019-04-11T00:23:47.118Z,60.327148
2019-04-11T00:24:11.355Z,60.223389
2019-04-11T00:24:35.637Z,59.912109
2019-04-11T00:24:59.924Z,60.015869
2019-04-11T00:25:24.215Z,60.119629
2019-04-11T00:25:48.501Z,60.638428
2019-04-11T00:26:12.811Z,60.845947
2019-04-11T00:26:37.090Z,60.534668
2019-04-11T00:27:01.377Z,60.638428
2019-04-11T00:27:25.643Z,60.327148
2019-04-11T00:27:49.944Z,60.223389
2019-04-11T00:28:14.233Z,60.327148
2019-04-11T00:28:38.472Z,60.638428
2019-04-11T00:29:02.777Z,60.534668
2019-04-11T00:29:27.093Z,60.327148
2019-04-11T00:29:52.320Z,60.327148
2019-04-11T00:30:16.696Z,59.838867
2019-04-11T00:30:40.966Z,60.150146
2019-04-11T00:31:05.254Z,60.461426
2019-04-11T00:31:29.526Z,60.772705
2019-04-11T00:31:53.818Z,60.876465
2019-04-11T00:32:18.106Z,60.845947
2019-04-11T00:32:42.319Z,60.327148
2019-04-11T00:33:06.643Z,60.119629
2019-04-11T00:33:30.956Z,60.461426
2019-04-11T00:33:55.252Z,60.668945
2019-04-11T00:34:19.508Z,60.668945
2019-04-11T00:34:43.750Z,60.565186
2019-04-11T00:35:08.065Z,60.357666
2019-04-11T00:35:32.364Z,60.357666
2019-04-11T00:35:56.718Z,60.253906
2019-04-11T00:36:21.044Z,60.668945
2019-04-11T00:36:45.276Z,60.876465
2019-04-11T00:37:09.576Z,60.980225
2019-04-11T00:37:33.844Z,60.876465
2019-04-11T00:37:58.149Z,60.772705
2019-04-11T00:38:22.469Z,60.772705
2019-04-11T00:38:46.776Z,60.461426
2019-04-11T00:39:12.085Z,60.150146
2019-04-11T00:39:36.406Z,60.565186
2019-04-11T00:40:00.668Z,60.772705
2019-04-11T00:40:25.851Z,60.565186
2019-04-11T00:40:50.162Z,60.772705
2019-04-11T00:41:14.408Z,60.980225
2019-04-11T00:41:38.719Z,60.668945
2019-04-11T00:42:03.021Z,60.876465
2019-04-11T00:42:27.304Z,60.980225
2019-04-11T00:42:51.562Z,60.668945
2019-04-11T00:43:27.092Z,60.772705
2019-04-11T00:43:44.154Z,60.980225
2019-04-11T00:44:07.329Z,60.876465
2019-04-11T00:44:31.631Z,60.772705
2019-04-11T00:44:55.953Z,60.876465
2019-04-11T00:45:20.213Z,61.291504
2019-04-11T00:45:44.546Z,61.499023
2019-04-11T00:46:08.825Z,61.499023
2019-04-11T00:46:33.103Z,61.291504
2019-04-11T00:46:57.381Z,61.291504
2019-04-11T00:47:21.640Z,61.529541
2019-04-11T00:47:45.960Z,61.529541
2019-04-11T00:48:10.229Z,61.602783
2019-04-11T00:48:34.515Z,61.737061
2019-04-11T00:48:58.752Z,61.737061
2019-04-11T00:49:23.071Z,61.529541
2019-04-11T00:49:47.350Z,61.425781
2019-04-11T00:50:11.696Z,61.322021
2019-04-11T00:50:36.023Z,61.218262
2019-04-11T00:51:00.317Z,61.737061
2019-04-11T00:51:24.547Z,61.633301
2019-04-11T00:51:48.813Z,61.633301
2019-04-11T00:52:13.114Z,61.633301
2019-04-11T00:52:38.090Z,61.529541
2019-04-11T00:53:02.392Z,61.322021
2019-04-11T00:53:26.723Z,61.425781
2019-04-11T00:53:51.006Z,61.633301
2019-04-11T00:54:15.338Z,61.94458
2019-04-11T00:54:39.629Z,61.84082
2019-04-11T00:55:03.945Z,61.737061
2019-04-11T00:55:28.232Z,61.737061
2019-04-11T00:55:52.518Z,61.84082
2019-04-11T00:56:16.782Z,61.94458
2019-04-11T00:56:41.087Z,61.94458
2019-04-11T00:57:05.365Z,62.04834
2019-04-11T00:57:29.614Z,62.017822
2019-04-11T00:57:53.933Z,62.04834
2019-04-11T00:58:18.219Z,62.017822
2019-04-11T00:58:42.497Z,62.1521
2019-04-11T00:59:06.794Z,62.1521
2019-04-11T00:59:31.067Z,62.1521
2019-04-11T00:59:55.331Z,62.255859
2019-04-11T01:00:19.664Z,62.255859
2019-04-11T01:00:43.944Z,62.04834
2019-04-11T01:01:08.224Z,61.94458
2019-04-11T01:01:32.514Z,61.84082
2019-04-11T01:01:57.844Z,61.84082
2019-04-11T01:02:22.089Z,62.04834
2019-04-11T01:02:46.369Z,62.04834
2019-04-11T01:03:10.657Z,61.94458
2019-04-11T01:03:34.924Z,62.04834
2019-04-11T01:04:00.206Z,62.359619
2019-04-11T01:04:24.472Z,62.359619
2019-04-11T01:04:49.754Z,62.359619
2019-04-11T01:05:14.038Z,62.359619
2019-04-11T01:05:38.342Z,62.567139
2019-04-11T01:06:02.624Z,62.1521
2019-04-11T01:06:26.899Z,61.94458
2019-04-11T01:06:51.170Z,62.04834
2019-04-11T01:07:15.445Z,62.255859
2019-04-11T01:07:39.743Z,62.359619
2019-04-11T01:08:04.073Z,62.359619
2019-04-11T01:08:28.350Z,62.567139
2019-04-11T01:08:52.625Z,62.670898
2019-04-11T01:09:16.910Z,62.670898
2019-04-11T01:09:41.208Z,62.567139
2019-04-11T01:10:05.516Z,62.359619
2019-04-11T01:10:30.994Z,62.1521
2019-04-11T01:10:56.257Z,61.94458
2019-04-11T01:11:20.546Z,62.04834
2019-04-11T01:11:44.782Z,62.359619
2019-04-11T01:12:09.079Z,62.359619
2019-04-11T01:12:33.345Z,62.359619
2019-04-11T01:12:57.626Z,62.670898
2019-04-11T01:13:22.742Z,62.670898
2019-04-11T01:13:52.244Z,62.359619
2019-04-11T01:14:14.263Z,62.1521
2019-04-11T01:14:39.551Z,62.878418
2019-04-11T01:15:03.881Z,63.006592
2019-04-11T01:15:28.170Z,62.902832
2019-04-11T01:15:53.428Z,62.487793
2019-04-11T01:16:25.212Z,62.487793
2019-04-11T01:16:49.520Z,62.695312
2019-04-11T01:17:13.845Z,62.902832
2019-04-11T01:17:38.149Z,63.110352
2019-04-11T01:18:02.460Z,62.799072
2019-04-11T01:18:26.700Z,62.902832
2019-04-11T01:18:50.991Z,62.591553
2019-04-11T01:19:15.273Z,62.695312
2019-04-11T01:19:39.553Z,62.902832
2019-04-11T01:20:03.860Z,62.902832
2019-04-11T01:20:28.234Z,62.695312
2019-04-11T01:20:52.553Z,62.591553
2019-04-11T01:21:16.854Z,62.591553
2019-04-11T01:21:41.351Z,62.799072
2019-04-11T01:22:06.631Z,63.214111
2019-04-11T01:22:30.926Z,63.110352
2019-04-11T01:22:55.275Z,62.799072
2019-04-11T01:23:19.616Z,62.799072
2019-04-11T01:23:43.907Z,62.799072
2019-04-11T01:24:08.194Z,62.902832
2019-04-11T01:24:32.475Z,62.902832
2019-04-11T01:24:56.767Z,62.799072
2019-04-11T01:25:21.118Z,63.214111
2019-04-11T01:25:45.417Z,63.214111
2019-04-11T01:26:09.711Z,63.214111
2019-04-11T01:26:33.988Z,63.62915
2019-04-11T01:26:58.253Z,63.62915
2019-04-11T01:27:22.613Z,63.317871
2019-04-11T01:27:46.900Z,63.317871
2019-04-11T01:28:11.172Z,63.214111
2019-04-11T01:28:35.461Z,63.214111
2019-04-11T01:28:59.794Z,62.902832
2019-04-11T01:29:24.096Z,62.799072
2019-04-11T01:29:48.393Z,62.902832
2019-04-11T01:30:12.650Z,62.695312
2019-04-11T01:30:37.704Z,62.902832
2019-04-11T01:31:02.006Z,63.110352
2019-04-11T01:31:26.296Z,63.110352
2019-04-11T01:31:50.585Z,63.006592
2019-04-11T01:32:14.882Z,63.317871
2019-04-11T01:32:39.171Z,63.62915
2019-04-11T01:33:03.455Z,63.525391
2019-04-11T01:33:28.567Z,63.006592
2019-04-11T01:33:52.818Z,62.695312
2019-04-11T01:34:17.191Z,62.695312
2019-04-11T01:34:41.450Z,63.421631
2019-04-11T01:35:05.746Z,63.62915
2019-04-11T01:35:30.024Z,63.83667
2019-04-11T01:35:54.322Z,63.94043
2019-04-11T01:36:19.554Z,63.73291
2019-04-11T01:36:43.914Z,63.421631
2019-04-11T01:37:08.186Z,63.317871
2019-04-11T01:37:32.472Z,63.421631
2019-04-11T01:37:56.739Z,63.317871
2019-04-11T01:38:22.393Z,63.317871
2019-04-11T01:38:45.302Z,63.525391
2019-04-11T01:39:09.584Z,63.525391
2019-04-11T01:39:33.839Z,63.525391
2019-04-11T01:39:58.126Z,63.73291
2019-04-11T01:40:22.372Z,64.044189
2019-04-11T01:40:46.689Z,63.83667
2019-04-11T01:41:10.993Z,63.94043
2019-04-11T01:41:35.281Z,63.94043
2019-04-11T01:41:59.582Z,63.83667
2019-04-11T01:42:23.888Z,64.044189
2019-04-11T01:42:48.172Z,64.044189
2019-04-11T01:43:12.469Z,63.73291
2019-04-11T01:43:36.776Z,63.421631
2019-04-11T01:44:05.847Z,63.73291
2019-04-11T01:44:29.346Z,64.044189
2019-04-11T01:44:53.712Z,63.83667
2019-04-11T01:45:18.005Z,63.83667
2019-04-11T01:45:42.271Z,63.94043
2019-04-11T01:46:06.607Z,63.83667
2019-04-11T01:46:30.845Z,63.62915
2019-04-11T01:46:55.145Z,63.62915
2019-04-11T01:47:19.424Z,63.421631
2019-04-11T01:47:43.739Z,63.867188
2019-04-11T01:48:08.034Z,63.763428
2019-04-11T01:48:32.284Z,63.62915
2019-04-11T01:48:56.531Z,64.044189
2019-04-11T01:49:20.817Z,63.83667
2019-04-11T01:49:45.118Z,64.074707
2019-04-11T01:50:09.417Z,64.178467
2019-04-11T01:50:33.710Z,64.178467
2019-04-11T01:50:58.051Z,63.970947
2019-04-11T01:51:22.296Z,63.867188
2019-04-11T01:51:46.593Z,63.763428
2019-04-11T01:52:10.866Z,63.970947
2019-04-11T01:52:35.157Z,63.970947
2019-04-11T01:52:59.415Z,63.970947
2019-04-11T01:53:23.692Z,63.970947
2019-04-11T01:53:47.896Z,63.970947
2019-04-11T01:54:12.188Z,63.763428
2019-04-11T01:54:36.485Z,63.867188
2019-04-11T01:55:00.771Z,64.074707
2019-04-11T01:55:25.109Z,64.178467
2019-04-11T01:55:49.418Z,64.074707
2019-04-11T01:56:13.717Z,64.178467
2019-04-11T01:56:38.010Z,64.178467
2019-04-11T01:57:02.324Z,64.385986
2019-04-11T01:57:26.571Z,64.074707
2019-04-11T01:57:50.915Z,64.074707
2019-04-11T01:58:15.214Z,64.385986
2019-04-11T01:58:39.515Z,64.489746
2019-04-11T01:59:03.781Z,64.385986
2019-04-11T01:59:28.078Z,64.593506
2019-04-11T01:59:52.359Z,64.801025
2019-04-11T02:00:16.617Z,64.697266
2019-04-11T02:00:40.926Z,64.282227
2019-04-11T02:01:05.224Z,64.801025
2019-04-11T02:01:29.505Z,64.904785
2019-04-11T02:01:53.811Z,64.489746
2019-04-11T02:02:18.079Z,64.489746
2019-04-11T02:02:43.341Z,64.697266
2019-04-11T02:03:07.632Z,64.593506
2019-04-11T02:03:31.955Z,64.593506
2019-04-11T02:03:56.221Z,64.697266
2019-04-11T02:04:20.494Z,64.593506
2019-04-11T02:04:44.946Z,64.904785
2019-04-11T02:05:09.362Z,65.112305
2019-04-11T02:05:33.828Z,65.008545
2019-04-11T02:05:58.114Z,64.904785
2019-04-11T02:06:22.512Z,64.904785
2019-04-11T02:06:46.806Z,64.904785
2019-04-11T02:07:11.128Z,64.801025
2019-04-11T02:07:35.414Z,65.008545
2019-04-11T02:07:59.704Z,65.008545
2019-04-11T02:08:23.980Z,64.801025
2019-04-11T02:08:48.252Z,64.697266
2019-04-11T02:09:12.609Z,64.593506
2019-04-11T02:09:36.893Z,64.282227
2019-04-11T02:10:01.191Z,64.074707
2019-04-11T02:10:25.451Z,64.489746
2019-04-11T02:10:49.764Z,64.489746
2019-04-11T02:11:14.018Z,64.178467
2019-04-11T02:11:38.340Z,64.178467
2019-04-11T02:12:02.630Z,64.385986
2019-04-11T02:12:27.866Z,64.520264
2019-04-11T02:12:52.123Z,64.624023
2019-04-11T02:13:16.428Z,64.831543
2019-04-11T02:13:40.719Z,64.624023
2019-04-11T02:14:12.387Z,65.246582
2019-04-11T02:14:32.318Z,65.454102
2019-04-11T02:14:56.607Z,65.142822
2019-04-11T02:15:20.933Z,65.216064
2019-04-11T02:15:45.218Z,65.319824
2019-04-11T02:16:09.482Z,65.246582
2019-04-11T02:16:33.760Z,65.142822
2019-04-11T02:16:58.042Z,65.246582
2019-04-11T02:17:23.311Z,65.246582
2019-04-11T02:17:47.678Z,65.142822
2019-04-11T02:18:11.955Z,65.142822
2019-04-11T02:18:36.264Z,65.039062
2019-04-11T02:19:00.538Z,65.350342
2019-04-11T02:19:24.823Z,65.350342
2019-04-11T02:19:49.124Z,65.454102
2019-04-11T02:20:13.462Z,65.557861
2019-04-11T02:20:37.801Z,65.661621
2019-04-11T02:21:02.098Z,65.557861
2019-04-11T02:21:26.377Z,65.454102
2019-04-11T02:21:50.643Z,65.454102
2019-04-11T02:22:14.891Z,65.142822
2019-04-11T02:22:39.190Z,65.246582
2019-04-11T02:23:03.478Z,65.350342
2019-04-11T02:23:27.811Z,65.350342
2019-04-11T02:23:52.091Z,65.454102
2019-04-11T02:24:16.384Z,65.557861
2019-04-11T02:24:40.661Z,65.557861
2019-04-11T02:25:04.899Z,65.557861
2019-04-11T02:25:29.189Z,65.454102
2019-04-11T02:25:53.473Z,65.9729
2019-04-11T02:26:17.793Z,66.07666
2019-04-11T02:26:44.302Z,65.869141
2019-04-11T02:27:07.458Z,65.661621
2019-04-11T02:27:31.666Z,65.765381
2019-04-11T02:27:56.988Z,65.661621
2019-04-11T02:28:21.326Z,65.765381
2019-04-11T02:28:45.631Z,65.454102
2019-04-11T02:29:09.934Z,65.557861
2019-04-11T02:29:34.223Z,65.765381
2019-04-11T02:29:59.517Z,65.765381
2019-04-11T02:30:26.015Z,65.765381
2019-04-11T02:30:51.740Z,66.07666
2019-04-11T02:31:17.766Z,66.18042
2019-04-11T02:31:42.906Z,65.9729
2019-04-11T02:32:08.018Z,65.9729
2019-04-11T02:32:32.435Z,65.9729
2019-04-11T02:32:56.628Z,65.9729
2019-04-11T02:33:22.344Z,65.661621
2019-04-11T02:33:47.375Z,65.454102
2019-04-11T02:34:11.766Z,65.869141
2019-04-11T02:34:35.708Z,65.9729
2019-04-11T02:35:02.356Z,65.9729
2019-04-11T02:35:27.358Z,65.661621
2019-04-11T02:35:52.631Z,65.899658
2019-04-11T02:36:17.139Z,65.869141
2019-04-11T02:36:41.235Z,65.869141
2019-04-11T02:37:05.583Z,66.07666
2019-04-11T02:37:29.895Z,66.18042
2019-04-11T02:37:55.471Z,65.869141
2019-04-11T02:38:19.597Z,66.18042
2019-04-11T02:38:44.794Z,66.418457
2019-04-11T02:39:14.863Z,66.28418
2019-04-11T02:39:39.160Z,66.07666
2019-04-11T02:40:03.665Z,66.107178
2019-04-11T02:40:28.100Z,66.314697
2019-04-11T02:40:53.111Z,66.210938
2019-04-11T02:41:17.473Z,66.210938
2019-04-11T02:41:42.678Z,66.210938
2019-04-11T02:42:07.199Z,66.18042
2019-04-11T02:42:31.421Z,66.107178
2019-04-11T02:42:55.727Z,66.28418
2019-04-11T02:43:21.056Z,66.387939
2019-04-11T02:43:47.320Z,66.52832
2019-04-11T02:44:30.537Z,66.63208
2019-04-11T02:44:54.053Z,66.314697
2019-04-11T02:45:19.495Z,66.107178
2019-04-11T02:45:44.950Z,66.63208
2019-04-11T02:46:11.250Z,66.63208
2019-04-11T02:46:38.122Z,66.63208
2019-04-11T02:47:01.597Z,66.52832
2019-04-11T02:47:27.499Z,66.52832
2019-04-11T02:47:51.635Z,66.73584
2019-04-11T02:48:16.767Z,66.73584
2019-04-11T02:48:41.158Z,66.63208
2019-04-11T02:49:06.573Z,66.418457
2019-04-11T02:49:31.592Z,66.52832
2019-04-11T02:49:55.672Z,66.73584
2019-04-11T02:50:21.869Z,66.8396
2019-04-11T02:50:46.231Z,66.943359
2019-04-11T02:51:10.663Z,66.943359
2019-04-11T02:51:35.020Z,66.943359
2019-04-11T02:51:59.138Z,67.150879
2019-04-11T02:52:23.519Z,67.150879
2019-04-11T02:52:48.013Z,66.8396
2019-04-11T02:53:13.157Z,67.047119
2019-04-11T02:53:37.333Z,67.047119
2019-04-11T02:54:02.878Z,67.047119
2019-04-11T02:54:28.859Z,67.047119
2019-04-11T02:54:53.097Z,66.8396
2019-04-11T02:55:17.583Z,67.047119
2019-04-11T02:55:42.167Z,66.943359
2019-04-11T02:56:06.726Z,67.047119
2019-04-11T02:56:31.690Z,66.943359
2019-04-11T02:56:58.252Z,67.047119
2019-04-11T02:57:22.110Z,67.150879
2019-04-11T02:57:46.517Z,67.150879
2019-04-11T02:58:10.961Z,67.047119
2019-04-11T02:58:35.238Z,67.358398
2019-04-11T02:59:00.434Z,67.669678
2019-04-11T02:59:25.900Z,67.669678
2019-04-11T02:59:51.953Z,67.700195
2019-04-11T03:00:16.323Z,67.803955
2019-04-11T03:00:40.764Z,67.596436
2019-04-11T03:01:07.846Z,67.492676
2019-04-11T03:01:32.459Z,67.388916
2019-04-11T03:01:56.554Z,67.596436
2019-04-11T03:02:21.847Z,67.803955
2019-04-11T03:02:48.413Z,67.803955
2019-04-11T03:03:13.442Z,67.492676
2019-04-11T03:03:37.807Z,67.388916
2019-04-11T03:04:02.352Z,67.565918
2019-04-11T03:04:27.478Z,67.492676
2019-04-11T03:04:51.499Z,67.492676
2019-04-11T03:05:16.787Z,67.700195
2019-04-11T03:05:42.398Z,67.669678
2019-04-11T03:06:07.484Z,67.565918
2019-04-11T03:06:31.632Z,67.462158
2019-04-11T03:06:55.953Z,67.565918
2019-04-11T03:07:20.973Z,67.565918
2019-04-11T03:07:46.264Z,67.462158
2019-04-11T03:08:14.530Z,67.462158
2019-04-11T03:08:39.127Z,67.596436
2019-04-11T03:09:03.176Z,67.254639
2019-04-11T03:09:27.445Z,67.462158
2019-04-11T03:09:51.739Z,67.254639
2019-04-11T03:10:16.916Z,67.358398
2019-04-11T03:10:41.490Z,67.462158
2019-04-11T03:11:05.946Z,67.565918
2019-04-11T03:11:30.805Z,67.462158
2019-04-11T03:11:55.218Z,67.492676
2019-04-11T03:12:19.658Z,67.803955
2019-04-11T03:12:44.188Z,67.803955
2019-04-11T03:13:08.991Z,67.877197
2019-04-11T03:13:33.809Z,67.462158
2019-04-11T03:13:58.872Z,67.254639
2019-04-11T03:14:23.767Z,67.181396
2019-04-11T03:15:09.040Z,67.254639
2019-04-11T03:15:31.544Z,67.773438
2019-04-11T03:15:59.119Z,67.980957
2019-04-11T03:16:27.667Z,67.907715
2019-04-11T03:16:51.545Z,68.115234
2019-04-11T03:17:14.620Z,67.907715
2019-04-11T03:17:38.417Z,68.115234
2019-04-11T03:18:04.823Z,68.218994
2019-04-11T03:18:45.266Z,68.426514
2019-04-11T03:19:12.641Z,68.634033
2019-04-11T03:19:37.283Z,68.530273
2019-04-11T03:20:02.573Z,68.426514
2019-04-11T03:20:26.262Z,68.634033
2019-04-11T03:20:49.455Z,68.634033
2019-04-11T03:21:16.317Z,68.530273
2019-04-11T03:21:42.301Z,68.426514
2019-04-11T03:22:06.287Z,68.426514
2019-04-11T03:22:30.488Z,68.322754
2019-04-11T03:22:59.781Z,68.322754
2019-04-11T03:23:23.465Z,68.634033
2019-04-11T03:23:47.507Z,68.634033
2019-04-11T03:24:13.875Z,68.426514
2019-04-11T03:24:39.128Z,68.530273
2019-04-11T03:25:03.587Z,68.664551
2019-04-11T03:25:28.796Z,68.981934
2019-04-11T03:25:52.887Z,68.768311
2019-04-11T03:26:17.377Z,68.426514
2019-04-11T03:26:41.754Z,68.634033
2019-04-11T03:27:07.660Z,68.841553
2019-04-11T03:27:33.174Z,68.841553
2019-04-11T03:27:57.433Z,68.737793
2019-04-11T03:28:25.363Z,68.634033
2019-04-11T03:28:51.866Z,69.189453
2019-04-11T03:29:16.253Z,69.262695
2019-04-11T03:29:41.458Z,69.189453
2019-04-11T03:30:07.769Z,68.878174
2019-04-11T03:30:46.263Z,68.634033
2019-04-11T03:31:32.310Z,68.945312
2019-04-11T03:32:01.774Z,69.049072
2019-04-11T03:33:24.036Z,68.737793
2019-04-11T03:33:42.528Z,68.768311
2019-04-11T03:34:00.892Z,68.878174
2019-04-11T03:34:22.048Z,68.981934
2019-04-11T03:35:19.600Z,68.664551
2019-04-11T03:36:06.632Z,68.981934
2019-04-11T03:36:20.499Z,68.981934
2019-04-11T03:36:47.434Z,69.049072
2019-04-11T03:37:42.723Z,69.293213
2019-04-11T03:38:12.082Z,68.981934
2019-04-11T03:38:36.305Z,69.085693
2019-04-11T03:39:05.298Z,69.293213
2019-04-11T03:39:32.227Z,68.945312
2019-04-11T03:39:59.124Z,68.945312
2019-04-11T03:40:25.613Z,69.189453
2019-04-11T03:40:49.910Z,69.152832
2019-04-11T03:41:15.359Z,69.189453
2019-04-11T03:41:45.297Z,69.293213
2019-04-11T03:42:09.331Z,69.293213
2019-04-11T03:42:37.945Z,69.293213
2019-04-11T03:43:01.065Z,69.293213
2019-04-11T03:43:29.597Z,69.085693
2019-04-11T03:43:53.773Z,69.085693
2019-04-11T03:44:18.681Z,68.981934
2019-04-11T03:44:42.269Z,69.189453
2019-04-11T03:45:25.217Z,69.293213
2019-04-11T03:45:52.320Z,69.500732
2019-04-11T03:46:19.222Z,69.573975
2019-04-11T03:46:41.616Z,69.262695
2019-04-11T03:47:11.011Z,69.366455
2019-04-11T03:47:34.677Z,69.152832
2019-04-11T03:48:05.413Z,69.049072
2019-04-11T03:48:28.882Z,69.293213
2019-04-11T03:48:55.519Z,69.500732
2019-04-11T03:49:20.532Z,69.293213
2019-04-11T03:49:46.552Z,69.396973
2019-04-11T03:50:09.238Z,69.396973
2019-04-11T03:50:34.763Z,69.396973
2019-04-11T03:50:59.992Z,69.604492
2019-04-11T03:51:26.217Z,69.500732
2019-04-11T03:51:51.203Z,69.293213
2019-04-11T03:52:15.533Z,69.604492
2019-04-11T03:52:41.506Z,69.500732
2019-04-11T03:53:06.996Z,69.812012
2019-04-11T03:53:32.406Z,69.604492
2019-04-11T03:53:57.297Z,69.812012
2019-04-11T03:54:21.621Z,69.915771
2019-04-11T03:54:45.979Z,69.812012
2019-04-11T03:55:11.447Z,69.915771
2019-04-11T03:55:35.393Z,69.812012
2019-04-11T03:55:59.797Z,69.708252
2019-04-11T03:56:25.055Z,69.708252
2019-04-11T03:56:49.772Z,69.708252
2019-04-11T03:57:13.861Z,69.708252
2019-04-11T03:57:37.859Z,69.812012
2019-04-11T03:58:04.371Z,69.396973
2019-04-11T03:58:29.675Z,69.293213
2019-04-11T03:58:53.882Z,69.396973
2019-04-11T03:59:19.486Z,69.500732
2019-04-11T03:59:44.300Z,69.500732
2019-04-11T04:00:10.699Z,69.396973
2019-04-11T04:00:39.197Z,69.604492
2019-04-11T04:01:06.415Z,70.019531
2019-04-11T04:01:30.225Z,69.915771
2019-04-11T04:01:54.841Z,70.019531
2019-04-11T04:02:20.866Z,70.019531
2019-04-11T04:02:44.922Z,70.019531
2019-04-11T04:03:09.654Z,70.227051
2019-04-11T04:03:34.699Z,70.330811
2019-04-11T04:03:58.833Z,70.227051
2019-04-11T04:04:24.313Z,69.915771
2019-04-11T04:04:49.715Z,69.812012
2019-04-11T04:05:13.791Z,70.330811
2019-04-11T04:05:39.637Z,70.74585
2019-04-11T04:06:04.954Z,70.98999
2019-04-11T04:06:29.302Z,71.063232
2019-04-11T04:06:53.442Z,70.88623
2019-04-11T04:07:19.841Z,70.782471
2019-04-11T04:07:44.936Z,70.782471
2019-04-11T04:08:09.345Z,70.782471
2019-04-11T04:08:34.765Z,70.98999
2019-04-11T04:08:58.927Z,70.88623
2019-04-11T04:09:24.479Z,70.88623
2019-04-11T04:09:49.491Z,70.98999
2019-04-11T04:10:16.310Z,70.574951
2019-04-11T04:10:40.037Z,70.471191
2019-04-11T04:11:04.486Z,70.574951
2019-04-11T04:11:30.355Z,70.782471
2019-04-11T04:11:55.039Z,70.782471
2019-04-11T04:12:19.431Z,70.782471
2019-04-11T04:12:43.844Z,70.782471
2019-04-11T04:13:11.821Z,70.88623
2019-04-11T04:13:35.064Z,70.98999
2019-04-11T04:13:59.823Z,70.782471
2019-04-11T04:14:24.909Z,70.678711
2019-04-11T04:14:49.984Z,70.782471
2019-04-11T04:15:31.155Z,70.64209
2019-04-11T04:15:55.286Z,70.74585
2019-04-11T04:16:18.527Z,70.98999
2019-04-11T04:16:43.094Z,70.849609
2019-04-11T04:17:06.831Z,70.88623
2019-04-11T04:17:31.303Z,70.782471
2019-04-11T04:17:55.697Z,70.98999
2019-04-11T04:18:19.890Z,71.19751
2019-04-11T04:18:44.251Z,70.98999
2019-04-11T04:19:11.489Z,70.88623
2019-04-11T04:19:35.936Z,70.88623
2019-04-11T04:20:00.123Z,70.88623
2019-04-11T04:20:25.207Z,70.88623
2019-04-11T04:20:49.584Z,71.09375
2019-04-11T04:21:13.864Z,71.30127
2019-04-11T04:21:39.302Z,71.09375
2019-04-11T04:22:03.576Z,70.98999
2019-04-11T04:22:27.802Z,70.98999
2019-04-11T04:22:52.885Z,70.98999
2019-04-11T04:23:17.274Z,70.88623
2019-04-11T04:23:41.596Z,70.88623
2019-04-11T04:24:06.927Z,70.88623
2019-04-11T04:24:35.240Z,70.98999
2019-04-11T04:24:59.447Z,71.19751
2019-04-11T04:25:24.713Z,71.30127
2019-04-11T04:25:49.971Z,71.30127
2019-04-11T04:26:15.201Z,71.30127
2019-04-11T04:26:39.546Z,71.19751
2019-04-11T04:27:05.050Z,71.19751
2019-04-11T04:27:31.015Z,71.30127
2019-04-11T04:27:55.101Z,71.09375
2019-04-11T04:28:19.577Z,70.98999
2019-04-11T04:28:43.609Z,71.19751
2019-04-11T04:29:07.898Z,71.405029
2019-04-11T04:29:32.708Z,71.405029
2019-04-11T04:30:00.350Z,71.30127
2019-04-11T04:30:25.164Z,71.405029
2019-04-11T04:30:50.083Z,71.508789
2019-04-11T04:31:14.683Z,71.508789
2019-04-11T04:31:39.004Z,71.405029
2019-04-11T04:32:03.468Z,71.508789
2019-04-11T04:32:28.589Z,71.508789
2019-04-11T04:32:52.725Z,71.508789
2019-04-11T04:33:17.576Z,71.508789
2019-04-11T04:33:43.500Z,71.508789
2019-04-11T04:34:07.682Z,71.405029
2019-04-11T04:34:32.112Z,71.612549
2019-04-11T04:34:56.761Z,71.612549
2019-04-11T04:35:23.990Z,71.612549
2019-04-11T04:35:48.021Z,71.716309
2019-04-11T04:36:13.757Z,71.508789
2019-04-11T04:36:38.696Z,71.508789
2019-04-11T04:37:04.173Z,71.612549
2019-04-11T04:37:30.104Z,71.820068
2019-04-11T04:37:55.241Z,71.716309
2019-04-11T04:38:19.551Z,71.508789
2019-04-11T04:38:45.035Z,71.612549
2019-04-11T04:39:09.208Z,71.716309
2019-04-11T04:39:35.088Z,71.612549
2019-04-11T04:40:17.468Z,71.612549
2019-04-11T04:40:44.570Z,71.405029
2019-04-11T04:41:09.844Z,71.508789
2019-04-11T04:41:33.261Z,71.716309
2019-04-11T04:42:01.005Z,71.716309
2019-04-11T04:42:27.036Z,71.612549
2019-04-11T04:42:50.768Z,71.612549
2019-04-11T04:43:15.061Z,71.612549
2019-04-11T04:43:39.495Z,71.405029
2019-04-11T04:44:04.875Z,71.612549
2019-04-11T04:44:30.204Z,71.716309
2019-04-11T04:44:54.389Z,71.820068
2019-04-11T04:45:19.696Z,71.508789
2019-04-11T04:46:03.278Z,71.30127
2019-04-11T04:46:29.312Z,71.508789
2019-04-11T04:46:46.836Z,71.612549
2019-04-11T04:47:16.349Z,71.820068
2019-04-11T04:47:42.033Z,71.820068
2019-04-11T04:48:04.373Z,71.405029
2019-04-11T04:48:29.861Z,71.405029